重慶 の空港の天気 - METARとTAF

重慶江北国際空港 ( ZUCK / CKG ) - 中国 重慶市
飛行場実況気象(Metar)
観測時間01/29 16:00 CST (01/29 08:00 UTC)
風向・風速南東 3m/s
視程10km以上
天気現象
少しの雲 雲底高度 340m
全天の8割程度の雲 雲底高度 550m
気温6℃
湿度100%
気圧1019hPa
METARZUCK 290800Z 14003MPS 100V180 9999 FEW011 BKN018 06/06 Q1019 NOSIG
過去の天気等 Google飛行場航空写真 Wunderground天気予報

過去48時間のMETAR

飛行場予報(TAF)
発表時間: 1/29 11:04 CST (1/29 03:04 UTC)
予報対象時間: 29日14時 CST ~ 30日14時 CST
風向・風速北北東 3m/s
視程5000m
天気現象もや
全天の4割程度の雲 雲底高度 610m
全天の8割程度の雲 雲底高度 1520m
30日6時 CST ~ 30日9時 CST に一時的に
視程2000m
TAF ZUCK 290304Z 2906/3006 03003MPS 5000 BR SCT020 BKN050 TX10/3006Z TN03/2924Z
TEMPO 2922/3001 2000